Pudsey, United Kingdom
Current Conditions -  °F | °C
As of 11:50 AM on Thursday 27 Nov 2014 (Local Time) from EGNM Reporting Station
Moderate Fog Moderate Fog  
Wind Chill:   Ceiling: Unl
Heat Index:   Visibility: 0.12mi
Dew Point:   Wind: 3mph
Humidity: 100%   Direction: NA
Pressure: 29.59"   Gusts: NA
Location:  53.8°N, 1.66°W
Report Text: EGNM 271150Z VRB03KT 0200 R32/0250 FG VV/// 06/06 Q1002
Loading
Personal Weather Stations






























Interactive Weather Map New forecast layout! Learn more

10-Day Weather Forecast

Advertisements
Track Severe Weather on mobile